Time;durP1;ratioP1;P1;durP2;ratioP2;P2;SDS_P1;SDS_P2;PMS_P1;PMS_P2;Temp;Humidity;BMP_temperature;BMP_pressure;BME280_temperature;BME280_humidity;BME280_pressure;Samples;Min_cycle;Max_cycle;Signal;HPM_P1;HPM_P2
2021/04/03 00:02:23;;;;;;;14.23;1.43;;;;;;;;;;5029647;28;20021;-68
2021/04/03 00:04:49;;;;;;;8.43;1.60;;;;;;;;;;5025869;28;20013;-68
2021/04/03 00:07:14;;;;;;;9.30;1.83;;;;;;;;;;5028207;28;20021;-68
2021/04/03 00:09:39;;;;;;;12.47;2.07;;;;;;;;;;5026382;28;20021;-68
2021/04/03 00:12:06;;;;;;;7.03;1.57;;;;;;;;;;5030438;28;20126;-68
2021/04/03 00:14:31;;;;;;;7.50;1.60;;;;;;;;;;5028968;28;20022;-68
2021/04/03 00:16:56;;;;;;;8.17;1.93;;;;;;;;;;5029688;28;20348;-68
2021/04/03 00:19:22;;;;;;;7.43;1.50;;;;;;;;;;5031467;28;20033;-68
2021/04/03 00:21:47;;;;;;;8.00;1.80;;;;;;;;;;5029401;28;20021;-68
2021/04/03 00:24:12;;;;;;;12.10;1.50;;;;;;;;;;5027848;28;20112;-68
2021/04/03 00:26:37;;;;;;;11.63;1.60;;;;;;;;;;5029295;28;20029;-68
2021/04/03 00:29:03;;;;;;;8.60;2.17;;;;;;;;;;5028746;28;20030;-68
2021/04/03 00:31:28;;;;;;;11.67;1.70;;;;;;;;;;5030146;28;20277;-68
2021/04/03 00:33:53;;;;;;;11.97;1.60;;;;;;;;;;5028696;28;20021;-68
2021/04/03 00:36:19;;;;;;;9.17;1.83;;;;;;;;;;5030422;28;20014;-68
2021/04/03 00:38:44;;;;;;;10.00;2.00;;;;;;;;;;5027533;28;20062;-68
2021/04/03 00:41:09;;;;;;;11.03;1.47;;;;;;;;;;5025222;28;20048;-68
2021/04/03 00:43:34;;;;;;;11.70;2.30;;;;;;;;;;5030339;28;20159;-68
2021/04/03 00:46:00;;;;;;;9.27;2.10;;;;;;;;;;5029562;28;20037;-68
2021/04/03 00:48:25;;;;;;;11.03;2.07;;;;;;;;;;5033644;28;20021;-68
2021/04/03 00:50:51;;;;;;;6.07;1.70;;;;;;;;;;5032290;28;20014;-68
2021/04/03 00:53:24;;;;;;;7.40;1.60;;;;;;;;;;5036318;28;20014;-68
2021/04/03 00:55:50;;;;;;;10.10;1.37;;;;;;;;;;5037060;28;20635;-68
2021/04/03 00:58:16;;;;;;;7.57;1.97;;;;;;;;;;5017718;28;20290;-70
2021/04/03 01:00:41;;;;;;;18.07;2.13;;;;;;;;;;5032352;28;20021;-68
2021/04/03 01:05:39;;;;;;;6.60;1.90;;;;;;;;;;5071832;28;20076;-65
2021/04/03 01:08:05;;;;;;;7.47;1.43;;;;;;;;;;5071180;28;20303;-64
2021/04/03 01:10:31;;;;;;;4.77;1.70;;;;;;;;;;5069195;28;20026;-67
2021/04/03 01:13:12;;;;;;;7.10;1.60;;;;;;;;;;5070869;28;20017;-67
2021/04/03 01:15:40;;;;;;;9.03;1.77;;;;;;;;;;5072231;28;20298;-67
2021/04/03 01:18:09;;;;;;;10.63;2.10;;;;;;;;;;5067439;28;20278;-67
2021/04/03 01:20:40;;;;;;;5.20;1.60;;;;;;;;;;5067569;28;20341;-67
2021/04/03 01:23:09;;;;;;;7.10;1.83;;;;;;;;;;5070720;28;20278;-67
2021/04/03 01:25:34;;;;;;;6.37;1.70;;;;;;;;;;5071382;28;20259;-66
2021/04/03 01:28:14;;;;;;;10.73;1.97;;;;;;;;;;5068354;28;20349;-67
2021/04/03 01:30:41;;;;;;;8.47;1.90;;;;;;;;;;5068252;28;20541;-67
2021/04/03 01:33:09;;;;;;;8.10;1.97;;;;;;;;;;5073370;28;20738;-67
2021/04/03 01:35:38;;;;;;;11.67;1.93;;;;;;;;;;5077689;28;20274;-67
2021/04/03 01:38:18;;;;;;;7.97;1.67;;;;;;;;;;5071369;28;20369;-67
2021/04/03 01:40:44;;;;;;;6.23;1.50;;;;;;;;;;5071394;28;20286;-67
2021/04/03 01:43:13;;;;;;;8.10;1.47;;;;;;;;;;5071231;28;20739;-67
2021/04/03 01:45:39;;;;;;;8.13;1.67;;;;;;;;;;5072365;28;20275;-67
2021/04/03 01:48:05;;;;;;;9.57;1.67;;;;;;;;;;5072647;28;20286;-66
2021/04/03 01:50:31;;;;;;;6.10;1.80;;;;;;;;;;5069276;28;20747;-67
2021/04/03 01:52:56;;;;;;;7.53;1.60;;;;;;;;;;5073807;28;20012;-67
2021/04/03 01:55:22;;;;;;;6.40;1.63;;;;;;;;;;5063115;28;20023;-67
2021/04/03 01:57:50;;;;;;;10.07;1.93;;;;;;;;;;5074419;28;20384;-67
2021/04/03 02:00:18;;;;;;;12.93;2.60;;;;;;;;;;5066108;28;20028;-67
2021/04/03 02:02:43;;;;;;;8.13;1.53;;;;;;;;;;5065834;28;20285;-66
2021/04/03 02:05:11;;;;;;;9.33;2.07;;;;;;;;;;5071165;28;20658;-67
2021/04/03 02:07:38;;;;;;;11.07;1.67;;;;;;;;;;5068144;28;20504;-67
2021/04/03 02:10:04;;;;;;;10.33;2.30;;;;;;;;;;5069484;28;20366;-66
2021/04/03 02:12:29;;;;;;;10.40;1.80;;;;;;;;;;5063958;28;20784;-67
2021/04/03 02:14:55;;;;;;;7.80;1.70;;;;;;;;;;5073503;28;20274;-67
2021/04/03 02:17:21;;;;;;;16.87;2.67;;;;;;;;;;5068930;28;20021;-67
2021/04/03 02:19:46;;;;;;;26.73;3.30;;;;;;;;;;5074025;28;20266;-67
2021/04/03 02:22:14;;;;;;;20.83;3.40;;;;;;;;;;5073704;28;20027;-67
2021/04/03 02:24:41;;;;;;;12.97;2.63;;;;;;;;;;5052015;28;20028;-67
2021/04/03 02:27:07;;;;;;;13.07;2.50;;;;;;;;;;5066457;28;20287;-67
2021/04/03 02:29:32;;;;;;;17.73;2.80;;;;;;;;;;5068786;28;20329;-67
2021/04/03 02:31:57;;;;;;;16.40;2.20;;;;;;;;;;5068386;28;20020;-64
2021/04/03 02:34:23;;;;;;;13.63;2.40;;;;;;;;;;5071715;28;20028;-64
2021/04/03 02:36:48;;;;;;;16.30;2.30;;;;;;;;;;5068117;28;20102;-64
2021/04/03 02:39:41;;;;;;;13.60;2.13;;;;;;;;;;5068854;28;20037;-64
2021/04/03 02:42:10;;;;;;;20.17;2.30;;;;;;;;;;5064615;28;20099;-64
2021/04/03 02:44:39;;;;;;;23.83;2.87;;;;;;;;;;5069977;28;20643;-64
2021/04/03 02:47:24;;;;;;;20.57;3.87;;;;;;;;;;5068808;28;20340;-64
2021/04/03 02:49:53;;;;;;;19.17;2.90;;;;;;;;;;5065865;28;20352;-64
2021/04/03 02:52:18;;;;;;;22.93;3.27;;;;;;;;;;5068847;28;20317;-67
2021/04/03 02:54:44;;;;;;;10.87;3.00;;;;;;;;;;5064495;28;20306;-67
2021/04/03 02:57:12;;;;;;;9.50;3.10;;;;;;;;;;5068667;28;20028;-67
2021/04/03 02:59:40;;;;;;;15.67;2.97;;;;;;;;;;5066973;28;20074;-67
2021/04/03 03:02:06;;;;;;;19.43;4.30;;;;;;;;;;5068674;28;20278;-67
2021/04/03 03:04:31;;;;;;;15.77;3.07;;;;;;;;;;5059127;28;20800;-67
2021/04/03 03:06:58;;;;;;;18.60;3.40;;;;;;;;;;5047376;28;20354;-67
2021/04/03 03:09:24;;;;;;;20.37;3.07;;;;;;;;;;5045201;28;20025;-67
2021/04/03 03:11:51;;;;;;;21.80;4.00;;;;;;;;;;5046263;28;20276;-67
2021/04/03 03:14:17;;;;;;;17.80;3.07;;;;;;;;;;5048880;28;20029;-67
2021/04/03 03:16:44;;;;;;;21.40;3.00;;;;;;;;;;5047479;28;20287;-67
2021/04/03 03:19:10;;;;;;;25.50;3.57;;;;;;;;;;5047591;28;20339;-67
2021/04/03 03:21:38;;;;;;;18.07;3.47;;;;;;;;;;5046092;28;20279;-67
2021/04/03 03:24:07;;;;;;;22.43;3.30;;;;;;;;;;5049739;28;20418;-67
2021/04/03 03:26:33;;;;;;;18.83;3.33;;;;;;;;;;5049218;28;20493;-67
2021/04/03 03:28:58;;;;;;;20.37;4.10;;;;;;;;;;5045658;28;20378;-67
2021/04/03 03:31:23;;;;;;;24.97;3.77;;;;;;;;;;5050515;28;20105;-67
2021/04/03 03:33:49;;;;;;;36.43;5.30;;;;;;;;;;5044158;28;20161;-67
2021/04/03 03:36:14;;;;;;;33.73;5.43;;;;;;;;;;5050059;28;20029;-67
2021/04/03 03:38:40;;;;;;;24.50;4.47;;;;;;;;;;5047034;28;20337;-67
2021/04/03 03:41:06;;;;;;;26.00;5.00;;;;;;;;;;5050688;28;20163;-67
2021/04/03 03:43:31;;;;;;;22.37;4.87;;;;;;;;;;5043976;28;20382;-67
2021/04/03 03:45:57;;;;;;;16.47;3.33;;;;;;;;;;5043524;28;20049;-68
2021/04/03 03:48:22;;;;;;;30.70;5.53;;;;;;;;;;5042618;28;20049;-67
2021/04/03 03:50:47;;;;;;;25.13;5.67;;;;;;;;;;5049243;28;20013;-67
2021/04/03 03:53:12;;;;;;;26.90;5.10;;;;;;;;;;5046994;28;20024;-67
2021/04/03 03:55:38;;;;;;;27.47;6.03;;;;;;;;;;5045392;28;20473;-67
2021/04/03 03:58:03;;;;;;;22.57;4.93;;;;;;;;;;5048008;28;20025;-67
2021/04/03 04:00:28;;;;;;;27.60;4.57;;;;;;;;;;5047632;28;20423;-67
2021/04/03 04:02:54;;;;;;;18.73;3.77;;;;;;;;;;5049050;28;20029;-67
2021/04/03 04:05:19;;;;;;;26.53;4.30;;;;;;;;;;5061507;28;20519;-67
2021/04/03 04:07:44;;;;;;;24.30;5.57;;;;;;;;;;5067581;28;20044;-67
2021/04/03 04:10:12;;;;;;;17.17;4.17;;;;;;;;;;5063528;28;20025;-67
2021/04/03 04:12:37;;;;;;;31.43;5.30;;;;;;;;;;5066734;28;20473;-67
2021/04/03 04:15:03;;;;;;;28.07;5.20;;;;;;;;;;5067156;28;20420;-67
2021/04/03 04:17:28;;;;;;;24.93;5.27;;;;;;;;;;5067130;28;20187;-67
2021/04/03 04:19:54;;;;;;;26.93;5.47;;;;;;;;;;5068521;28;20423;-67
2021/04/03 04:22:19;;;;;;;31.00;5.50;;;;;;;;;;5069799;28;20062;-67
2021/04/03 04:24:44;;;;;;;30.43;4.77;;;;;;;;;;5073376;28;20499;-67
2021/04/03 04:27:10;;;;;;;24.40;4.60;;;;;;;;;;5062885;28;20048;-67
2021/04/03 04:29:35;;;;;;;22.80;4.23;;;;;;;;;;5064754;28;20032;-67
2021/04/03 04:32:01;;;;;;;37.33;10.37;;;;;;;;;;5066686;28;20024;-67
2021/04/03 04:34:27;;;;;;;26.10;9.30;;;;;;;;;;5065904;28;20024;-67
2021/04/03 04:36:52;;;;;;;37.07;13.50;;;;;;;;;;5066025;28;20021;-67
2021/04/03 04:39:17;;;;;;;25.07;6.40;;;;;;;;;;5062980;28;20028;-67
2021/04/03 04:41:42;;;;;;;28.67;8.13;;;;;;;;;;5067572;28;20098;-67
2021/04/03 04:44:08;;;;;;;25.27;6.00;;;;;;;;;;5066231;28;20480;-68
2021/04/03 04:46:33;;;;;;;24.87;6.07;;;;;;;;;;5063482;28;20063;-67
2021/04/03 04:48:58;;;;;;;44.83;13.27;;;;;;;;;;5068739;28;20032;-67
2021/04/03 04:51:25;;;;;;;24.33;5.40;;;;;;;;;;5068015;28;20063;-67
2021/04/03 04:53:50;;;;;;;32.20;5.70;;;;;;;;;;5065275;28;20345;-68
2021/04/03 04:56:15;;;;;;;21.57;4.90;;;;;;;;;;5065875;28;20275;-67
2021/04/03 04:58:41;;;;;;;19.87;4.77;;;;;;;;;;5068936;28;20025;-67
2021/04/03 05:01:06;;;;;;;22.57;5.10;;;;;;;;;;5057717;28;20074;-67
2021/04/03 05:03:31;;;;;;;21.13;5.43;;;;;;;;;;5060858;28;20037;-67
2021/04/03 05:05:57;;;;;;;29.60;7.13;;;;;;;;;;5042209;28;20114;-67
2021/04/03 05:08:23;;;;;;;27.67;7.33;;;;;;;;;;5049447;28;20039;-67
2021/04/03 05:10:48;;;;;;;35.30;4.70;;;;;;;;;;5040683;28;20276;-67
2021/04/03 05:13:13;;;;;;;28.90;6.50;;;;;;;;;;5043399;28;20024;-67
2021/04/03 05:15:38;;;;;;;19.37;5.80;;;;;;;;;;5045832;28;20027;-67
2021/04/03 05:18:04;;;;;;;22.80;4.13;;;;;;;;;;5046693;28;20377;-67
2021/04/03 05:20:29;;;;;;;25.87;4.37;;;;;;;;;;5042230;28;20054;-67
2021/04/03 05:22:54;;;;;;;26.97;6.30;;;;;;;;;;5047647;28;20079;-67
2021/04/03 05:25:20;;;;;;;26.57;5.17;;;;;;;;;;5047244;28;20024;-67
2021/04/03 05:27:45;;;;;;;24.57;6.13;;;;;;;;;;5049218;28;20456;-67
2021/04/03 05:30:11;;;;;;;24.10;7.67;;;;;;;;;;5042231;28;20096;-67
2021/04/03 05:32:36;;;;;;;22.27;4.70;;;;;;;;;;5045281;28;20087;-67
2021/04/03 05:35:02;;;;;;;18.37;4.57;;;;;;;;;;5044993;28;20029;-67
2021/04/03 05:37:27;;;;;;;19.87;3.97;;;;;;;;;;5048795;28;20428;-67
2021/04/03 05:39:53;;;;;;;24.53;7.57;;;;;;;;;;5050020;28;20165;-67
2021/04/03 05:42:19;;;;;;;31.20;9.97;;;;;;;;;;5045217;28;20385;-67
2021/04/03 05:44:45;;;;;;;33.83;10.40;;;;;;;;;;5048809;28;20489;-67
2021/04/03 05:47:10;;;;;;;21.13;6.80;;;;;;;;;;5049138;28;20314;-67
2021/04/03 05:49:36;;;;;;;37.63;11.70;;;;;;;;;;5049006;28;20056;-67
2021/04/03 05:52:03;;;;;;;21.10;6.13;;;;;;;;;;5032447;28;21022;-67
2021/04/03 05:54:28;;;;;;;32.23;7.60;;;;;;;;;;5052559;28;20112;-67
2021/04/03 05:56:54;;;;;;;37.67;11.83;;;;;;;;;;5046141;28;20407;-67
2021/04/03 05:59:19;;;;;;;25.53;7.23;;;;;;;;;;5048321;28;20079;-67
2021/04/03 06:01:45;;;;;;;21.93;5.77;;;;;;;;;;5042652;28;20026;-67
2021/04/03 06:04:10;;;;;;;34.50;8.80;;;;;;;;;;5049013;28;20080;-68
2021/04/03 06:06:35;;;;;;;18.97;5.93;;;;;;;;;;5044799;28;20056;-67
2021/04/03 06:09:01;;;;;;;21.30;6.33;;;;;;;;;;5042973;28;20112;-67
2021/04/03 06:11:26;;;;;;;30.93;13.10;;;;;;;;;;5048136;28;20035;-68
2021/04/03 06:14:00;;;;;;;27.90;9.17;;;;;;;;;;5045640;28;20100;-67
2021/04/03 06:16:30;;;;;;;24.57;5.80;;;;;;;;;;5047693;28;20513;-67
2021/04/03 06:19:04;;;;;;;25.67;4.27;;;;;;;;;;5048822;28;20084;-68
2021/04/03 06:21:30;;;;;;;17.93;5.27;;;;;;;;;;5044858;28;20714;-67
2021/04/03 06:23:55;;;;;;;46.37;10.00;;;;;;;;;;5050527;28;20094;-68
2021/04/03 06:26:21;;;;;;;36.53;6.00;;;;;;;;;;5049054;28;20020;-68
2021/04/03 06:28:46;;;;;;;21.30;4.60;;;;;;;;;;5031235;28;20441;-68
2021/04/03 06:31:13;;;;;;;27.53;8.47;;;;;;;;;;5044749;28;20060;-68
2021/04/03 06:33:38;;;;;;;27.47;6.43;;;;;;;;;;5047869;28;20033;-68
2021/04/03 06:36:21;;;;;;;29.30;8.73;;;;;;;;;;5043266;28;20028;-67
2021/04/03 06:38:47;;;;;;;33.43;9.97;;;;;;;;;;5048841;28;20502;-68
2021/04/03 06:41:19;;;;;;;14.37;3.80;;;;;;;;;;5050773;28;20056;-68
2021/04/03 06:44:03;;;;;;;25.48;5.72;;;;;;;;;;5042716;28;20035;-68
2021/04/03 06:46:28;;;;;;;30.27;7.83;;;;;;;;;;5046199;28;20043;-65
2021/04/03 06:48:55;;;;;;;38.93;10.53;;;;;;;;;;5046832;28;20128;-65
2021/04/03 06:51:22;;;;;;;28.00;5.50;;;;;;;;;;5046097;28;20017;-65
2021/04/03 06:53:48;;;;;;;21.10;3.93;;;;;;;;;;5045441;28;20041;-65
2021/04/03 06:56:14;;;;;;;21.47;4.30;;;;;;;;;;5050559;28;20082;-65
2021/04/03 06:58:43;;;;;;;20.87;4.40;;;;;;;;;;5047172;28;20033;-66
2021/04/03 07:01:09;;;;;;;19.17;3.70;;;;;;;;;;5046755;28;20540;-66
2021/04/03 07:03:37;;;;;;;17.27;3.60;;;;;;;;;;5049575;28;20025;-66
2021/04/03 07:06:02;;;;;;;23.10;4.27;;;;;;;;;;5045973;28;20123;-66
2021/04/03 07:08:27;;;;;;;19.20;5.03;;;;;;;;;;5049482;28;20137;-65
2021/04/03 07:10:53;;;;;;;20.93;5.90;;;;;;;;;;5046419;28;20025;-66
2021/04/03 07:13:19;;;;;;;27.50;7.23;;;;;;;;;;5038136;28;20029;-66
2021/04/03 07:15:45;;;;;;;17.97;4.43;;;;;;;;;;5041742;28;20028;-66
2021/04/03 07:18:10;;;;;;;24.97;4.33;;;;;;;;;;5051946;28;20435;-66
2021/04/03 07:20:36;;;;;;;17.83;4.47;;;;;;;;;;5046550;28;20029;-66
2021/04/03 07:23:02;;;;;;;16.43;3.80;;;;;;;;;;5043855;28;20036;-66
2021/04/03 07:25:29;;;;;;;17.03;4.40;;;;;;;;;;5046525;28;20020;-66
2021/04/03 07:27:55;;;;;;;17.20;3.80;;;;;;;;;;5042190;28;20416;-66
2021/04/03 07:30:35;;;;;;;24.23;5.67;;;;;;;;;;5047442;28;20021;-66
2021/04/03 07:33:08;;;;;;;18.53;4.60;;;;;;;;;;5047880;28;20025;-66
2021/04/03 07:35:37;;;;;;;13.47;4.00;;;;;;;;;;5050335;28;20114;-66
2021/04/03 07:38:07;;;;;;;15.87;4.70;;;;;;;;;;5044368;28;20021;-66
2021/04/03 07:40:32;;;;;;;17.13;4.23;;;;;;;;;;5043508;28;20082;-66
2021/04/03 07:42:58;;;;;;;20.77;4.70;;;;;;;;;;5038847;28;20116;-66
2021/04/03 07:45:40;;;;;;;24.80;5.33;;;;;;;;;;5050398;28;20032;-67
2021/04/03 07:48:11;;;;;;;;;;;;;;;;;;5048979;28;20478;-67
2021/04/03 07:50:40;;;;;;;23.63;4.80;;;;;;;;;;5046560;28;20407;-67
2021/04/03 07:53:05;;;;;;;18.30;5.20;;;;;;;;;;5048835;28;20024;-67
2021/04/03 07:55:32;;;;;;;23.77;5.67;;;;;;;;;;5043911;28;20033;-67
2021/04/03 07:58:16;;;;;;;19.97;6.10;;;;;;;;;;5050171;28;20052;-67
2021/04/03 08:00:41;;;;;;;21.93;6.63;;;;;;;;;;5050100;28;20025;-67
2021/04/03 08:03:07;;;;;;;25.73;7.10;;;;;;;;;;5046206;28;20017;-68
2021/04/03 08:05:32;;;;;;;20.40;6.17;;;;;;;;;;5045442;28;20072;-67
2021/04/03 08:07:58;;;;;;;17.37;5.10;;;;;;;;;;5041050;28;20115;-67
2021/04/03 08:10:23;;;;;;;23.90;5.57;;;;;;;;;;5044490;28;20457;-68
2021/04/03 08:12:49;;;;;;;18.93;5.47;;;;;;;;;;5046072;28;20029;-68
2021/04/03 08:15:18;;;;;;;21.90;6.27;;;;;;;;;;5049179;28;20025;-67
2021/04/03 08:17:50;;;;;;;23.47;5.70;;;;;;;;;;5035132;28;20096;-68
2021/04/03 08:20:15;;;;;;;15.70;4.83;;;;;;;;;;5045526;28;20028;-67
2021/04/03 08:22:56;;;;;;;19.10;4.30;;;;;;;;;;5051047;28;20029;-68
2021/04/03 08:25:22;;;;;;;15.50;4.13;;;;;;;;;;5040282;28;20020;-67
2021/04/03 08:27:47;;;;;;;16.97;5.10;;;;;;;;;;5051573;28;20025;-67
2021/04/03 08:30:22;;;;;;;21.23;5.23;;;;;;;;;;5049599;28;20108;-67
2021/04/03 08:33:03;;;;;;;16.17;4.07;;;;;;;;;;5050230;28;20029;-67
2021/04/03 08:35:29;;;;;;;14.57;3.92;;;;;;;;;;5044524;28;20067;-68
2021/04/03 08:38:15;;;;;;;15.47;3.37;;;;;;;;;;5047519;28;20038;-68
2021/04/03 08:40:41;;;;;;;14.83;5.30;;;;;;;;;;5036529;28;20030;-68
2021/04/03 08:43:06;;;;;;;10.73;3.67;;;;;;;;;;5041544;28;20358;-68
2021/04/03 08:45:39;;;;;;;11.00;3.27;;;;;;;;;;5046878;28;20037;-68
2021/04/03 08:48:08;;;;;;;16.47;4.00;;;;;;;;;;5039834;28;20079;-68
2021/04/03 08:50:33;;;;;;;13.20;3.73;;;;;;;;;;5050586;28;20025;-68
2021/04/03 08:53:03;;;;;;;14.47;3.53;;;;;;;;;;5050420;28;20036;-68
2021/04/03 08:55:28;;;;;;;11.80;3.23;;;;;;;;;;5049925;28;20024;-68
2021/04/03 08:57:57;;;;;;;16.73;2.97;;;;;;;;;;5046460;28;20449;-68
2021/04/03 09:00:23;;;;;;;13.33;3.40;;;;;;;;;;5048310;28;20025;-68
2021/04/03 09:02:49;;;;;;;12.23;2.57;;;;;;;;;;5040365;28;20068;-68
2021/04/03 09:05:15;;;;;;;12.60;3.07;;;;;;;;;;5044283;28;20041;-68
2021/04/03 09:07:41;;;;;;;9.97;2.80;;;;;;;;;;5046954;28;20543;-68
2021/04/03 09:10:11;;;;;;;14.33;2.70;;;;;;;;;;5049188;28;20025;-68
2021/04/03 09:12:37;;;;;;;9.40;2.77;;;;;;;;;;5046252;28;20457;-68
2021/04/03 09:15:03;;;;;;;7.30;2.80;;;;;;;;;;5048996;28;20028;-68
2021/04/03 09:17:29;;;;;;;9.77;2.30;;;;;;;;;;5045662;28;20476;-68
2021/04/03 09:20:07;;;;;;;15.53;2.93;;;;;;;;;;5045747;28;20029;-68
2021/04/03 09:22:36;;;;;;;14.83;3.07;;;;;;;;;;5047367;28;20021;-68
2021/04/03 09:25:04;;;;;;;8.20;3.00;;;;;;;;;;5044111;28;20100;-69
2021/04/03 09:27:30;;;;;;;12.03;2.40;;;;;;;;;;5046200;28;20019;-69
2021/04/03 09:29:56;;;;;;;12.70;2.70;;;;;;;;;;5047422;28;20334;-69
2021/04/03 09:32:21;;;;;;;9.23;2.17;;;;;;;;;;5050350;28;20036;-72
2021/04/03 09:34:46;;;;;;;9.45;2.67;;;;;;;;;;5047120;28;20025;-69
2021/04/03 09:37:15;;;;;;;9.95;2.42;;;;;;;;;;5047971;28;20029;-69
2021/04/03 09:39:53;;;;;;;9.83;2.77;;;;;;;;;;5045537;28;20051;-69
2021/04/03 09:42:20;;;;;;;9.77;2.20;;;;;;;;;;5040197;28;20025;-69
2021/04/03 09:44:46;;;;;;;12.27;2.60;;;;;;;;;;5049349;28;20021;-69
2021/04/03 09:47:12;;;;;;;7.38;1.83;;;;;;;;;;5043908;28;20028;-69
2021/04/03 09:49:38;;;;;;;7.55;1.80;;;;;;;;;;5049161;28;20029;-69
2021/04/03 09:52:05;;;;;;;9.52;2.15;;;;;;;;;;5045242;28;20021;-69
2021/04/03 09:54:30;;;;;;;11.10;2.30;;;;;;;;;;5046623;28;20106;-68
2021/04/03 09:56:55;;;;;;;9.18;2.10;;;;;;;;;;5044235;28;20025;-68
2021/04/03 09:59:21;;;;;;;5.40;1.40;;;;;;;;;;5047289;28;20412;-68
2021/04/03 10:01:46;;;;;;;8.05;2.40;;;;;;;;;;5046801;28;20033;-68
2021/04/03 10:04:12;;;;;;;8.02;2.15;;;;;;;;;;5047066;28;20049;-68
2021/04/03 10:06:37;;;;;;;4.65;1.40;;;;;;;;;;5045402;28;20044;-67
2021/04/03 10:09:03;;;;;;;8.43;2.67;;;;;;;;;;5046517;28;20045;-67
2021/04/03 10:11:28;;;;;;;6.82;1.92;;;;;;;;;;5053623;28;20028;-67
2021/04/03 10:13:53;;;;;;;8.07;2.13;;;;;;;;;;5049833;28;20390;-67
2021/04/03 10:16:18;;;;;;;7.47;2.10;;;;;;;;;;5040065;28;20020;-67
2021/04/03 10:18:43;;;;;;;10.73;1.95;;;;;;;;;;5040362;28;20038;-67
2021/04/03 10:21:10;;;;;;;5.55;1.50;;;;;;;;;;5050101;28;20518;-67
2021/04/03 10:23:36;;;;;;;9.70;1.95;;;;;;;;;;5049624;28;20040;-67
2021/04/03 10:26:01;;;;;;;9.02;2.25;;;;;;;;;;5047667;28;20095;-67
2021/04/03 10:28:26;;;;;;;8.35;1.90;;;;;;;;;;5048514;28;20040;-67
2021/04/03 10:30:51;;;;;;;9.68;2.72;;;;;;;;;;5044387;28;20025;-67
2021/04/03 10:33:17;;;;;;;4.45;1.63;;;;;;;;;;5043150;28;20033;-67
2021/04/03 10:35:42;;;;;;;9.07;2.00;;;;;;;;;;5044001;28;20029;-67
2021/04/03 10:38:08;;;;;;;5.70;1.73;;;;;;;;;;5049232;28;20466;-67
2021/04/03 10:40:33;;;;;;;4.07;1.20;;;;;;;;;;5045495;28;20107;-67
2021/04/03 10:42:58;;;;;;;7.37;1.73;;;;;;;;;;5042521;28;20048;-66
2021/04/03 10:45:23;;;;;;;7.10;1.90;;;;;;;;;;5043129;28;20039;-67
2021/04/03 10:47:49;;;;;;;10.07;1.60;;;;;;;;;;5045547;28;20366;-66
2021/04/03 10:50:14;;;;;;;6.87;1.30;;;;;;;;;;5046491;28;20477;-66
2021/04/03 10:52:40;;;;;;;6.97;1.67;;;;;;;;;;5049037;28;20063;-66
2021/04/03 10:55:05;;;;;;;4.50;1.33;;;;;;;;;;5045333;28;20048;-66
2021/04/03 10:57:30;;;;;;;11.80;1.87;;;;;;;;;;5042389;28;20052;-66
2021/04/03 10:59:56;;;;;;;13.10;4.00;;;;;;;;;;5042995;28;20043;-67
2021/04/03 11:02:21;;;;;;;8.00;1.57;;;;;;;;;;5046973;28;20587;-66
2021/04/03 11:04:46;;;;;;;10.57;2.80;;;;;;;;;;5047614;28;20053;-67
2021/04/03 11:07:12;;;;;;;6.93;1.67;;;;;;;;;;5045672;28;20029;-67
2021/04/03 11:09:37;;;;;;;6.97;2.00;;;;;;;;;;5043690;28;20033;-67
2021/04/03 11:12:03;;;;;;;5.53;1.50;;;;;;;;;;5046118;28;20032;-66
2021/04/03 11:14:28;;;;;;;8.17;1.57;;;;;;;;;;5043613;28;20032;-66
2021/04/03 11:16:53;;;;;;;5.77;1.60;;;;;;;;;;5042763;28;20628;-67
2021/04/03 11:19:18;;;;;;;9.57;1.60;;;;;;;;;;5047748;28;20033;-66
2021/04/03 11:21:44;;;;;;;7.60;2.00;;;;;;;;;;5050374;28;20033;-67
2021/04/03 11:24:09;;;;;;;6.17;1.70;;;;;;;;;;5040997;28;20068;-67
2021/04/03 11:26:35;;;;;;;7.70;1.67;;;;;;;;;;5039754;28;20109;-66
2021/04/03 11:29:01;;;;;;;4.13;1.10;;;;;;;;;;5041914;28;20047;-66
2021/04/03 11:31:26;;;;;;;6.10;1.47;;;;;;;;;;5043388;28;20036;-67
2021/04/03 11:33:53;;;;;;;5.30;1.27;;;;;;;;;;5050945;28;20033;-66
2021/04/03 11:36:19;;;;;;;6.77;1.40;;;;;;;;;;5043639;28;20175;-66
2021/04/03 11:38:44;;;;;;;6.87;1.87;;;;;;;;;;5044574;28;20100;-67
2021/04/03 11:41:09;;;;;;;6.03;1.67;;;;;;;;;;5041027;28;20482;-67
2021/04/03 11:43:35;;;;;;;4.57;1.17;;;;;;;;;;5047778;28;20029;-67
2021/04/03 11:46:01;;;;;;;2.97;1.03;;;;;;;;;;5043045;28;20029;-67
2021/04/03 11:48:26;;;;;;;5.53;1.43;;;;;;;;;;5044321;28;20037;-66
2021/04/03 11:50:51;;;;;;;5.00;1.60;;;;;;;;;;5038017;28;20077;-66
2021/04/03 11:53:16;;;;;;;8.50;1.93;;;;;;;;;;5044877;28;20092;-67
2021/04/03 11:55:42;;;;;;;7.03;2.10;;;;;;;;;;5045500;28;20033;-67
2021/04/03 11:58:07;;;;;;;8.80;2.13;;;;;;;;;;5025897;28;20033;-67
2021/04/03 12:00:33;;;;;;;3.87;1.20;;;;;;;;;;5047291;28;20021;-67
2021/04/03 12:02:58;;;;;;;3.73;1.70;;;;;;;;;;5042582;28;20025;-66
2021/04/03 12:05:23;;;;;;;6.50;1.80;;;;;;;;;;5047591;28;20051;-67
2021/04/03 12:07:49;;;;;;;6.07;1.60;;;;;;;;;;5039749;28;20029;-67
2021/04/03 12:10:15;;;;;;;4.93;1.73;;;;;;;;;;5046947;28;20035;-67
2021/04/03 12:12:41;;;;;;;8.07;1.50;;;;;;;;;;5047021;28;20031;-67
2021/04/03 12:15:10;;;;;;;7.30;1.67;;;;;;;;;;5044017;28;20112;-67
2021/04/03 12:17:36;;;;;;;6.07;1.77;;;;;;;;;;5046915;28;20022;-67
2021/04/03 12:20:03;;;;;;;7.23;1.90;;;;;;;;;;5045030;28;20036;-67
2021/04/03 12:22:28;;;;;;;8.10;2.20;;;;;;;;;;5044524;28;20108;-67
2021/04/03 12:24:54;;;;;;;8.37;2.10;;;;;;;;;;5048124;28;20113;-67
2021/04/03 12:27:19;;;;;;;9.03;2.20;;;;;;;;;;5039325;28;20033;-67
2021/04/03 12:29:44;;;;;;;10.93;2.70;;;;;;;;;;5046337;28;20036;-67
2021/04/03 12:32:10;;;;;;;8.83;3.00;;;;;;;;;;5046194;28;20052;-67
2021/04/03 12:34:35;;;;;;;6.90;2.70;;;;;;;;;;5046687;28;20029;-67
2021/04/03 12:37:00;;;;;;;9.00;3.27;;;;;;;;;;5042885;28;20060;-67
2021/04/03 12:39:26;;;;;;;8.40;3.37;;;;;;;;;;5043895;28;20032;-67
2021/04/03 12:41:51;;;;;;;8.63;2.60;;;;;;;;;;5043509;28;20029;-67
2021/04/03 12:44:16;;;;;;;8.17;2.50;;;;;;;;;;5041512;28;20029;-67
2021/04/03 12:46:41;;;;;;;9.53;3.40;;;;;;;;;;5047524;28;20037;-67
2021/04/03 12:49:08;;;;;;;13.07;3.83;;;;;;;;;;5047610;28;20032;-67
2021/04/03 12:51:34;;;;;;;9.07;3.50;;;;;;;;;;5052366;28;20522;-67
2021/04/03 12:53:59;;;;;;;8.30;3.20;;;;;;;;;;5044541;28;20033;-67
2021/04/03 12:56:24;;;;;;;12.13;3.90;;;;;;;;;;5044613;28;20032;-67
2021/04/03 12:58:50;;;;;;;9.73;4.47;;;;;;;;;;5046521;28;20381;-67
2021/04/03 13:01:15;;;;;;;12.30;4.03;;;;;;;;;;5046459;28;20024;-67
2021/04/03 13:03:40;;;;;;;12.70;4.27;;;;;;;;;;5048716;28;20048;-67
2021/04/03 13:06:06;;;;;;;10.27;3.50;;;;;;;;;;5051774;28;20157;-67
2021/04/03 13:08:31;;;;;;;10.77;4.13;;;;;;;;;;5052524;28;20036;-67
2021/04/03 13:10:56;;;;;;;11.40;3.60;;;;;;;;;;5049536;28;20029;-67
2021/04/03 13:13:21;;;;;;;13.37;5.40;;;;;;;;;;5054416;28;20029;-67
2021/04/03 13:15:47;;;;;;;12.43;5.63;;;;;;;;;;5049351;28;20017;-67
2021/04/03 13:18:12;;;;;;;17.30;6.83;;;;;;;;;;5051418;28;20039;-67
2021/04/03 13:20:37;;;;;;;19.27;7.40;;;;;;;;;;5050273;28;20104;-68
2021/04/03 13:23:04;;;;;;;16.23;6.50;;;;;;;;;;5051248;28;20056;-67
2021/04/03 13:25:30;;;;;;;18.97;6.83;;;;;;;;;;5050228;28;20035;-67
2021/04/03 13:27:55;;;;;;;17.77;6.73;;;;;;;;;;5050720;28;20116;-67
2021/04/03 13:30:20;;;;;;;14.37;6.63;;;;;;;;;;5048748;28;20048;-67
2021/04/03 13:32:46;;;;;;;18.60;8.33;;;;;;;;;;5049869;28;20458;-67
2021/04/03 13:35:12;;;;;;;22.93;9.60;;;;;;;;;;5049584;28;20027;-67
2021/04/03 13:37:37;;;;;;;23.10;10.97;;;;;;;;;;5047539;28;20060;-67
2021/04/03 13:40:02;;;;;;;30.00;11.37;;;;;;;;;;5050036;28;20025;-67
2021/04/03 13:42:28;;;;;;;28.23;10.97;;;;;;;;;;5050297;28;20035;-67
2021/04/03 13:44:53;;;;;;;27.57;10.80;;;;;;;;;;5042842;28;20111;-67
2021/04/03 13:47:18;;;;;;;32.73;12.77;;;;;;;;;;5050859;28;20036;-67
2021/04/03 13:49:44;;;;;;;22.53;10.13;;;;;;;;;;5052089;28;20033;-67
2021/04/03 13:52:09;;;;;;;26.17;11.43;;;;;;;;;;5052318;28;20024;-67
2021/04/03 13:54:34;;;;;;;23.93;11.03;;;;;;;;;;5047549;28;20025;-67
2021/04/03 13:57:00;;;;;;;30.43;12.10;;;;;;;;;;5049063;28;20032;-67
2021/04/03 13:59:25;;;;;;;27.90;12.70;;;;;;;;;;5052500;28;20020;-67
2021/04/03 14:01:50;;;;;;;27.37;11.43;;;;;;;;;;5050244;28;20427;-67
2021/04/03 14:04:16;;;;;;;30.90;12.60;;;;;;;;;;5044060;28;20065;-67
2021/04/03 14:06:41;;;;;;;34.03;14.13;;;;;;;;;;5039357;28;20045;-67
2021/04/03 14:09:06;;;;;;;27.30;13.23;;;;;;;;;;5044323;28;20559;-66
2021/04/03 14:11:32;;;;;;;34.90;13.13;;;;;;;;;;5045641;28;20029;-66
2021/04/03 14:13:57;;;;;;;26.67;12.07;;;;;;;;;;5046791;28;20147;-66
2021/04/03 14:16:22;;;;;;;25.17;11.07;;;;;;;;;;5045367;28;20032;-66
2021/04/03 14:18:47;;;;;;;31.80;11.77;;;;;;;;;;5043881;28;20060;-66
2021/04/03 14:21:13;;;;;;;22.80;9.97;;;;;;;;;;5045633;28;20033;-66
2021/04/03 14:23:38;;;;;;;17.23;7.40;;;;;;;;;;5042742;28;20149;-66
2021/04/03 14:26:04;;;;;;;21.90;7.10;;;;;;;;;;5043592;28;20037;-66
2021/04/03 14:28:29;;;;;;;23.70;6.77;;;;;;;;;;5038174;28;20043;-66
2021/04/03 14:30:54;;;;;;;16.53;5.70;;;;;;;;;;5045811;28;20052;-66
2021/04/03 14:33:19;;;;;;;12.60;4.10;;;;;;;;;;5039414;28;20029;-66